createdAt,value
2019-05-07T00:02:32.025Z,72.71
2019-05-07T00:05:02.748Z,73.10
2019-05-07T00:07:33.596Z,73.64
2019-05-07T00:10:04.505Z,73.80
2019-05-07T00:12:35.286Z,74.32
2019-05-07T00:15:06.515Z,74.15
2019-05-07T00:17:37.311Z,74.57
2019-05-07T00:20:08.937Z,75.39
2019-05-07T00:22:41.820Z,75.78
2019-05-07T00:25:13.945Z,75.32
2019-05-07T00:27:44.677Z,75.72
2019-05-07T00:30:15.541Z,76.21
2019-05-07T00:32:46.311Z,76.63
2019-05-07T00:35:19.688Z,76.34
2019-05-07T00:37:56.236Z,76.45
2019-05-07T00:40:45.947Z,76.85
2019-05-07T00:43:19.554Z,77.23
2019-05-07T00:45:56.709Z,77.73
2019-05-07T00:48:26.451Z,77.62
2019-05-07T00:51:16.060Z,78.24
2019-05-07T00:53:47.074Z,78.00
2019-05-07T00:56:18.039Z,78.45
2019-05-07T00:58:48.946Z,78.35
2019-05-07T01:01:19.818Z,78.45
2019-05-07T01:03:53.184Z,78.91
2019-05-07T01:06:26.428Z,78.91
2019-05-07T01:08:55.655Z,79.66
2019-05-07T01:11:26.512Z,80.28
2019-05-07T01:13:57.314Z,80.70
2019-05-07T01:16:28.099Z,81.13
2019-05-07T01:18:58.787Z,80.97
2019-05-07T01:21:29.733Z,81.42
2019-05-07T01:24:02.977Z,81.92
2019-05-07T01:26:33.218Z,81.67
2019-05-07T01:29:23.883Z,81.47
2019-05-07T01:32:00.233Z,81.52
2019-05-07T01:34:42.821Z,81.17
2019-05-07T01:37:13.056Z,81.35
2019-05-07T01:39:43.608Z,80.79
2019-05-07T01:42:14.531Z,81.01
2019-05-07T01:44:45.245Z,81.79
2019-05-07T01:47:16.046Z,82.50
2019-05-07T01:49:46.998Z,83.25
2019-05-07T01:52:17.836Z,83.97
2019-05-07T01:54:48.756Z,84.86
2019-05-07T01:57:19.608Z,86.03
2019-05-07T01:59:52.566Z,86.65
2019-05-07T02:02:37.240Z,86.60
2019-05-07T02:05:16.854Z,86.19
2019-05-07T02:07:53.609Z,85.81
2019-05-07T02:10:34.317Z,85.68
2019-05-07T02:13:05.500Z,85.71
2019-05-07T02:15:36.299Z,86.06
2019-05-07T02:18:16.134Z,86.38
2019-05-07T02:20:47.003Z,86.30
2019-05-07T02:23:17.924Z,86.42
2019-05-07T02:25:48.827Z,87.09
2019-05-07T02:28:19.658Z,87.33
2019-05-07T02:30:53.315Z,87.24
2019-05-07T02:33:23.207Z,87.20
2019-05-07T02:35:54.292Z,86.20
2019-05-07T02:38:34.627Z,85.56
2019-05-07T02:41:16.746Z,84.73
2019-05-07T02:43:47.482Z,84.41
2019-05-07T02:46:37.140Z,83.60
2019-05-07T02:49:15.919Z,83.19
2019-05-07T02:51:54.014Z,82.56
2019-05-07T02:54:32.588Z,82.43
2019-05-07T02:57:03.132Z,82.23
2019-05-07T02:59:34.096Z,81.72
2019-05-07T03:02:05.119Z,81.35
2019-05-07T03:04:35.760Z,81.24
2019-05-07T03:07:06.337Z,81.36
2019-05-07T03:09:36.946Z,81.37
2019-05-07T03:12:07.689Z,81.46
2019-05-07T03:14:38.290Z,81.56
2019-05-07T03:17:08.920Z,81.72
2019-05-07T03:19:43.010Z,81.37
2019-05-07T03:22:14.063Z,81.49
2019-05-07T03:24:56.034Z,81.51
2019-05-07T03:27:26.819Z,80.96
2019-05-07T03:30:04.457Z,80.37
2019-05-07T03:32:40.692Z,80.56
2019-05-07T03:35:27.390Z,80.45
2019-05-07T03:37:56.003Z,80.01
2019-05-07T03:40:27.138Z,79.95
2019-05-07T03:43:01.625Z,79.72
2019-05-07T03:45:46.096Z,79.31
2019-05-07T03:48:18.508Z,79.37
2019-05-07T03:50:49.286Z,79.23
2019-05-07T03:53:22.726Z,79.40
2019-05-07T03:55:53.670Z,79.66
2019-05-07T03:58:24.994Z,79.49
2019-05-07T04:00:55.557Z,78.95
2019-05-07T04:03:26.242Z,79.24
2019-05-07T04:05:56.904Z,78.77
2019-05-07T04:08:27.739Z,78.36
2019-05-07T04:10:58.492Z,77.42
2019-05-07T04:13:29.171Z,76.43
2019-05-07T04:15:59.935Z,76.08
2019-05-07T04:18:32.952Z,75.75
2019-05-07T04:21:04.039Z,75.17
2019-05-07T04:23:34.914Z,74.75
2019-05-07T04:26:13.496Z,74.38
2019-05-07T04:28:53.709Z,73.97
2019-05-07T04:31:24.304Z,71.97
2019-05-07T04:33:57.157Z,69.01
2019-05-07T04:36:30.048Z,65.98
2019-05-07T04:39:03.099Z,63.62
2019-05-07T04:41:33.281Z,60.49
2019-05-07T04:44:04.163Z,62.25
2019-05-07T04:46:34.719Z,63.31
2019-05-07T04:49:05.653Z,64.77
2019-05-07T04:51:55.283Z,65.88
2019-05-07T04:54:25.836Z,66.85
2019-05-07T04:56:56.678Z,68.51
2019-05-07T04:59:27.193Z,68.96
2019-05-07T05:02:04.515Z,69.92
2019-05-07T05:04:35.584Z,69.93
2019-05-07T05:07:06.210Z,70.57
2019-05-07T05:09:37.178Z,69.55
2019-05-07T05:12:07.910Z,69.80
2019-05-07T05:14:38.775Z,69.88
2019-05-07T05:17:09.486Z,69.63
2019-05-07T05:19:40.136Z,66.82
2019-05-07T05:22:31.736Z,58.62
2019-05-07T05:25:22.751Z,52.23
2019-05-07T05:27:53.588Z,49.10
2019-05-07T05:30:43.421Z,46.66
2019-05-07T05:33:14.411Z,44.30
2019-05-07T05:35:45.160Z,44.02
2019-05-07T05:38:15.839Z,42.40
2019-05-07T05:40:46.447Z,43.16
2019-05-07T05:43:24.618Z,42.68
2019-05-07T05:45:59.446Z,41.13
2019-05-07T05:48:30.204Z,39.93
2019-05-07T05:51:19.594Z,39.51
2019-05-07T05:53:58.767Z,38.36
2019-05-07T05:56:38.814Z,38.34
2019-05-07T05:59:25.323Z,38.17
2019-05-07T06:02:08.797Z,36.92
2019-05-07T06:04:58.420Z,36.36
2019-05-07T06:07:35.308Z,37.02
2019-05-07T06:10:22.969Z,37.88
2019-05-07T06:13:03.795Z,37.58
2019-05-07T06:15:53.296Z,38.12
2019-05-07T06:18:42.760Z,35.42
2019-05-07T06:21:32.302Z,35.54
2019-05-07T06:24:05.425Z,35.61
2019-05-07T06:26:35.937Z,35.92
2019-05-07T06:29:06.863Z,35.34
2019-05-07T06:31:37.684Z,36.08
2019-05-07T06:34:08.377Z,34.43
2019-05-07T06:36:42.414Z,33.40
2019-05-07T06:39:23.269Z,33.86
2019-05-07T06:42:12.792Z,31.67
2019-05-07T06:44:44.397Z,31.32
2019-05-07T06:47:14.954Z,30.36
2019-05-07T06:49:45.608Z,29.78
2019-05-07T06:52:16.238Z,29.96
2019-05-07T06:54:47.035Z,27.13
2019-05-07T06:57:17.830Z,25.43
2019-05-07T06:59:53.180Z,28.85
2019-05-07T07:02:38.150Z,27.71
2019-05-07T07:05:29.322Z,28.15
2019-05-07T07:08:04.554Z,29.58
2019-05-07T07:10:54.055Z,28.99
2019-05-07T07:13:25.937Z,27.78
2019-05-07T07:15:56.609Z,31.06
2019-05-07T07:18:27.201Z,30.22
2019-05-07T07:20:57.820Z,28.03
2019-05-07T07:23:28.545Z,26.78
2019-05-07T07:25:59.261Z,28.71
2019-05-07T07:28:29.840Z,27.43
2019-05-07T07:31:19.388Z,27.03
2019-05-07T07:33:52.608Z,26.54
2019-05-07T07:36:25.019Z,26.05
2019-05-07T07:38:55.716Z,26.95
2019-05-07T07:41:33.176Z,28.07
2019-05-07T07:44:03.972Z,26.62
2019-05-07T07:46:34.520Z,27.29
2019-05-07T07:49:10.996Z,26.33
2019-05-07T07:51:42.185Z,26.70
2019-05-07T07:54:10.252Z,26.12
2019-05-07T07:56:52.286Z,26.82
2019-05-07T07:59:39.068Z,26.68
2019-05-07T08:02:22.968Z,27.62
2019-05-07T08:04:54.087Z,27.77
2019-05-07T08:07:24.854Z,27.18
2019-05-07T08:09:55.379Z,27.83
2019-05-07T08:12:25.915Z,27.56
2019-05-07T08:15:13.406Z,29.15
2019-05-07T08:17:29.917Z,29.46
2019-05-07T08:20:02.529Z,31.17
2019-05-07T08:22:33.118Z,34.18
2019-05-07T08:25:05.386Z,29.06
2019-05-07T08:27:36.290Z,31.76
2019-05-07T08:30:09.325Z,35.26
2019-05-07T08:32:50.318Z,35.67
2019-05-07T08:35:28.430Z,34.98
2019-05-07T08:37:59.094Z,36.34
2019-05-07T08:40:29.849Z,34.56
2019-05-07T08:43:00.599Z,36.01
2019-05-07T08:45:52.440Z,32.76
2019-05-07T08:48:28.094Z,33.25
2019-05-07T08:50:58.729Z,30.46
2019-05-07T08:53:29.333Z,28.57
2019-05-07T08:56:00.267Z,28.73
2019-05-07T08:58:31.760Z,30.52
2019-05-07T09:01:03.080Z,30.93
2019-05-07T09:03:43.375Z,29.26
2019-05-07T09:06:17.291Z,25.10
2019-05-07T09:08:48.029Z,26.73
2019-05-07T09:11:18.829Z,24.58
2019-05-07T09:13:49.433Z,29.15
2019-05-07T09:16:20.118Z,32.63
2019-05-07T09:18:52.510Z,36.19
2019-05-07T09:21:23.652Z,36.78
2019-05-07T09:23:54.539Z,36.77
2019-05-07T09:26:32.442Z,36.47
2019-05-07T09:29:11.817Z,37.70
2019-05-07T09:32:03.048Z,39.65
2019-05-07T09:34:38.082Z,42.03
2019-05-07T09:37:12.444Z,43.17
2019-05-07T09:39:43.447Z,43.63
2019-05-07T09:42:14.436Z,42.23
2019-05-07T09:44:45.380Z,42.34
2019-05-07T09:47:16.265Z,41.18
2019-05-07T09:50:00.420Z,42.06
2019-05-07T09:52:22.666Z,43.21
2019-05-07T09:54:52.825Z,42.83
2019-05-07T09:57:30.986Z,44.75
2019-05-07T09:59:56.508Z,43.86
2019-05-07T10:02:27.589Z,44.73
2019-05-07T10:04:58.644Z,46.42
2019-05-07T10:07:29.569Z,46.17
2019-05-07T10:10:02.937Z,46.45
2019-05-07T10:12:44.320Z,47.03
2019-05-07T10:15:17.426Z,47.65
2019-05-07T10:17:56.469Z,49.72
2019-05-07T10:20:27.631Z,48.55
2019-05-07T10:22:58.380Z,49.13
2019-05-07T10:25:38.745Z,48.79
2019-05-07T10:28:09.950Z,48.97
2019-05-07T10:30:42.670Z,48.81
2019-05-07T10:33:13.048Z,46.64
2019-05-07T10:35:43.871Z,46.38
2019-05-07T10:38:15.100Z,47.03
2019-05-07T10:40:46.415Z,47.63
2019-05-07T10:43:17.156Z,48.86
2019-05-07T10:46:06.498Z,50.13
2019-05-07T10:48:43.852Z,50.60
2019-05-07T10:51:14.519Z,51.60
2019-05-07T10:53:45.404Z,49.92
2019-05-07T10:56:17.093Z,49.68
2019-05-07T10:58:48.894Z,51.90
2019-05-07T11:01:25.334Z,48.55
2019-05-07T11:03:56.881Z,45.17
2019-05-07T11:06:28.094Z,44.04
2019-05-07T11:08:59.700Z,44.11
2019-05-07T11:11:31.888Z,43.67
2019-05-07T11:14:02.757Z,43.99
2019-05-07T11:16:38.693Z,43.96
2019-05-07T11:19:12.741Z,44.99
2019-05-07T11:21:43.303Z,44.01
2019-05-07T11:24:13.966Z,44.95
2019-05-07T11:26:44.604Z,44.44
2019-05-07T11:29:15.099Z,44.44
2019-05-07T11:31:45.713Z,45.49
2019-05-07T11:34:16.212Z,45.65
2019-05-07T11:36:46.908Z,46.51
2019-05-07T11:39:17.646Z,48.33
2019-05-07T11:42:07.083Z,49.20
2019-05-07T11:44:37.928Z,48.77
2019-05-07T11:47:22.521Z,47.90
2019-05-07T11:50:14.814Z,47.46
2019-05-07T11:52:51.770Z,45.59
2019-05-07T11:55:22.511Z,45.53
2019-05-07T11:57:54.258Z,46.46
2019-05-07T12:00:33.908Z,44.95
2019-05-07T12:03:04.587Z,46.97
2019-05-07T12:05:36.086Z,48.93
2019-05-07T12:08:07.447Z,50.30
2019-05-07T12:10:38.564Z,50.75
2019-05-07T12:13:09.821Z,51.12
2019-05-07T12:15:42.714Z,52.34
2019-05-07T12:18:13.428Z,52.00
2019-05-07T12:20:44.967Z,52.67
2019-05-07T12:23:15.923Z,53.10
2019-05-07T12:25:47.009Z,50.24
2019-05-07T12:28:18.110Z,49.94
2019-05-07T12:31:03.753Z,46.30
2019-05-07T12:33:53.393Z,47.04
2019-05-07T12:36:24.226Z,44.81
2019-05-07T12:38:54.960Z,45.18
2019-05-07T12:41:34.286Z,46.64
2019-05-07T12:44:08.795Z,48.19
2019-05-07T12:46:42.318Z,47.82
2019-05-07T12:49:12.936Z,48.15
2019-05-07T12:52:02.522Z,50.39
2019-05-07T12:54:52.447Z,52.68
2019-05-07T12:57:24.268Z,53.54
2019-05-07T12:59:55.193Z,53.05
2019-05-07T13:02:45.063Z,54.10
2019-05-07T13:05:16.256Z,50.77
2019-05-07T13:07:53.204Z,46.89
2019-05-07T13:10:24.245Z,45.59
2019-05-07T13:12:55.296Z,45.39
2019-05-07T13:15:28.018Z,44.31
2019-05-07T13:17:59.259Z,42.71
2019-05-07T13:20:32.045Z,44.23
2019-05-07T13:23:02.707Z,45.17
2019-05-07T13:25:34.108Z,45.17
2019-05-07T13:28:05.163Z,45.19
2019-05-07T13:30:36.261Z,45.45
2019-05-07T13:33:07.299Z,45.71
2019-05-07T13:35:38.997Z,46.67
2019-05-07T13:38:28.977Z,47.01
2019-05-07T13:41:19.273Z,46.52
2019-05-07T13:44:06.251Z,46.41
2019-05-07T13:46:38.478Z,47.94
2019-05-07T13:49:09.787Z,50.78
2019-05-07T13:51:41.832Z,51.07
2019-05-07T13:54:12.944Z,51.72
2019-05-07T13:56:44.180Z,50.80
2019-05-07T13:59:15.708Z,51.77
2019-05-07T14:01:56.453Z,51.55
2019-05-07T14:04:27.302Z,51.79
2019-05-07T14:07:01.944Z,50.94
2019-05-07T14:09:33.192Z,50.05
2019-05-07T14:12:04.152Z,47.89
2019-05-07T14:14:37.679Z,48.90
2019-05-07T14:17:08.553Z,50.80
2019-05-07T14:19:39.217Z,44.40
2019-05-07T14:22:18.002Z,47.89
2019-05-07T14:24:43.095Z,48.26
2019-05-07T14:27:13.885Z,48.35
2019-05-07T14:29:44.869Z,47.77
2019-05-07T14:32:28.815Z,48.71
2019-05-07T14:35:15.547Z,47.05
2019-05-07T14:37:52.249Z,47.16
2019-05-07T14:40:25.181Z,48.11
2019-05-07T14:43:03.526Z,48.37
2019-05-07T14:45:34.870Z,49.58
2019-05-07T14:48:05.670Z,49.16
2019-05-07T14:50:36.686Z,49.96
2019-05-07T14:53:08.800Z,50.71
2019-05-07T14:55:45.791Z,52.23
2019-05-07T14:58:20.013Z,54.00
2019-05-07T15:00:51.869Z,57.50
2019-05-07T15:03:22.978Z,63.29
2019-05-07T15:05:54.071Z,66.69
2019-05-07T15:08:25.056Z,66.33
2019-05-07T15:10:55.959Z,68.54
2019-05-07T15:13:28.731Z,67.66
2019-05-07T15:16:03.096Z,68.46
2019-05-07T15:18:53.044Z,68.15
2019-05-07T15:21:27.984Z,68.18
2019-05-07T15:23:58.986Z,67.68
2019-05-07T15:26:29.933Z,68.82
2019-05-07T15:29:12.122Z,67.47
2019-05-07T15:32:03.349Z,64.95
2019-05-07T15:34:34.868Z,62.32
2019-05-07T15:37:05.789Z,58.66
2019-05-07T15:39:36.747Z,56.87
2019-05-07T15:42:08.014Z,57.98
2019-05-07T15:44:38.798Z,57.58
2019-05-07T15:47:14.480Z,55.72
2019-05-07T15:49:45.107Z,55.45
2019-05-07T15:52:34.774Z,58.47
2019-05-07T15:55:09.212Z,57.09
2019-05-07T15:57:40.445Z,56.60
2019-05-07T16:00:14.271Z,55.94
2019-05-07T16:02:47.783Z,55.43
2019-05-07T16:05:19.944Z,55.46
2019-05-07T16:07:51.288Z,55.09
2019-05-07T16:10:23.433Z,55.01
2019-05-07T16:12:54.675Z,55.48
2019-05-07T16:15:25.745Z,55.78
2019-05-07T16:18:02.917Z,56.58
2019-05-07T16:20:35.339Z,56.92
2019-05-07T16:23:14.802Z,57.18
2019-05-07T16:25:39.458Z,57.76
2019-05-07T16:28:15.217Z,56.64
2019-05-07T16:30:44.382Z,56.65
2019-05-07T16:33:15.754Z,56.61
2019-05-07T16:35:47.579Z,56.34
2019-05-07T16:38:18.270Z,55.71
2019-05-07T16:40:49.671Z,55.91
2019-05-07T16:43:21.986Z,55.76
2019-05-07T16:45:52.764Z,56.84
2019-05-07T16:48:23.474Z,56.57
2019-05-07T16:50:55.609Z,55.31
2019-05-07T16:53:30.203Z,56.26
2019-05-07T16:56:02.897Z,57.12
2019-05-07T16:58:42.788Z,56.23
2019-05-07T17:01:14.077Z,57.83
2019-05-07T17:03:56.214Z,59.78
2019-05-07T17:06:26.908Z,59.52
2019-05-07T17:09:13.208Z,59.98
2019-05-07T17:11:46.552Z,59.88
2019-05-07T17:14:18.346Z,61.37
2019-05-07T17:16:51.585Z,61.66
2019-05-07T17:19:22.519Z,62.13
2019-05-07T17:21:53.871Z,62.91
2019-05-07T17:24:29.281Z,62.48
2019-05-07T17:27:02.371Z,62.34
2019-05-07T17:29:37.141Z,63.29
2019-05-07T17:32:08.828Z,64.95
2019-05-07T17:34:43.257Z,66.56
2019-05-07T17:37:17.969Z,64.98
2019-05-07T17:39:52.251Z,66.36
2019-05-07T17:42:22.867Z,64.92
2019-05-07T17:44:58.083Z,66.14
2019-05-07T17:47:29.360Z,67.37
2019-05-07T17:50:06.331Z,69.66
2019-05-07T17:52:41.823Z,66.19
2019-05-07T17:55:13.591Z,65.25
2019-05-07T17:57:47.363Z,68.28
2019-05-07T18:00:22.062Z,68.99
2019-05-07T18:03:15.401Z,67.70
2019-05-07T18:05:46.254Z,68.14
2019-05-07T18:08:17.556Z,69.55
2019-05-07T18:10:52.029Z,69.68
2019-05-07T18:13:23.061Z,70.79
2019-05-07T18:15:59.622Z,71.66
2019-05-07T18:18:33.748Z,72.50
2019-05-07T18:21:07.806Z,74.00
2019-05-07T18:23:42.625Z,74.69
2019-05-07T18:26:29.784Z,75.12
2019-05-07T18:28:49.077Z,75.08
2019-05-07T18:31:27.669Z,76.62
2019-05-07T18:34:00.083Z,79.18
2019-05-07T18:36:37.799Z,80.73
2019-05-07T18:39:10.122Z,81.26
2019-05-07T18:41:41.788Z,81.34
2019-05-07T18:44:15.983Z,81.64
2019-05-07T18:46:48.090Z,82.14
2019-05-07T18:49:22.703Z,82.73
2019-05-07T18:52:03.026Z,84.15
2019-05-07T18:54:34.376Z,84.52
2019-05-07T18:57:10.197Z,85.13
2019-05-07T18:59:44.356Z,85.81
2019-05-07T19:02:15.944Z,86.18
2019-05-07T19:04:47.929Z,85.81
2019-05-07T19:07:22.811Z,84.88
2019-05-07T19:09:56.993Z,84.61
2019-05-07T19:12:32.743Z,83.84
2019-05-07T19:15:08.761Z,83.23
2019-05-07T19:17:50.830Z,83.33
2019-05-07T19:20:27.069Z,83.44
2019-05-07T19:23:02.691Z,84.53
2019-05-07T19:25:36.299Z,85.16
2019-05-07T19:28:14.372Z,85.19
2019-05-07T19:30:46.191Z,84.83
2019-05-07T19:33:26.736Z,84.35
2019-05-07T19:35:58.803Z,84.39
2019-05-07T19:38:32.366Z,84.77
2019-05-07T19:41:08.618Z,85.41
2019-05-07T19:43:46.687Z,85.47
2019-05-07T19:46:22.851Z,85.98
2019-05-07T19:49:02.750Z,85.86
2019-05-07T19:54:28.613Z,85.40
2019-05-07T19:57:03.980Z,85.86
2019-05-07T19:59:42.885Z,86.28
2019-05-07T20:02:17.611Z,86.51
2019-05-07T20:04:55.863Z,86.93
2019-05-07T20:07:28.308Z,87.41
2019-05-07T20:10:02.728Z,87.69
2019-05-07T20:12:38.162Z,87.94
2019-05-07T20:15:22.383Z,87.97
2019-05-07T20:17:57.998Z,87.77
2019-05-07T20:20:35.435Z,87.39
2019-05-07T20:23:09.425Z,86.87
2019-05-07T20:25:52.763Z,85.84
2019-05-07T20:28:24.186Z,85.78
2019-05-07T20:30:56.388Z,86.41
2019-05-07T20:33:33.333Z,87.25
2019-05-07T20:36:09.895Z,87.64
2019-05-07T20:38:47.809Z,87.77
2019-05-07T20:41:24.251Z,88.53
2019-05-07T20:44:00.074Z,89.01
2019-05-07T20:46:31.965Z,89.34
2019-05-07T20:49:03.182Z,89.78
2019-05-07T20:51:35.268Z,90.14
2019-05-07T20:54:22.703Z,89.94
2019-05-07T20:56:58.905Z,90.17
2019-05-07T20:59:32.752Z,90.07
2019-05-07T21:02:05.543Z,89.96
2019-05-07T21:04:36.543Z,90.01
2019-05-07T21:07:11.576Z,89.62
2019-05-07T21:09:42.298Z,89.24
2019-05-07T21:12:13.245Z,89.90
2019-05-07T21:14:45.260Z,90.23
2019-05-07T21:17:16.621Z,90.41
2019-05-07T21:20:07.863Z,90.81
2019-05-07T21:22:42.442Z,90.95
2019-05-07T21:25:14.516Z,91.49
2019-05-07T21:27:45.432Z,91.03
2019-05-07T21:30:17.628Z,90.74
2019-05-07T21:32:48.521Z,90.72
2019-05-07T21:35:19.394Z,90.56
2019-05-07T21:37:52.402Z,91.22
2019-05-07T21:40:23.193Z,91.63
2019-05-07T21:42:53.976Z,91.48
2019-05-07T21:45:43.868Z,91.85
2019-05-07T21:48:15.273Z,92.13
2019-05-07T21:50:46.760Z,91.87
2019-05-07T21:53:23.399Z,91.44
2019-05-07T21:56:05.136Z,91.25
2019-05-07T21:58:48.119Z,91.41
2019-05-07T22:01:23.344Z,91.25
2019-05-07T22:03:55.133Z,91.26
2019-05-07T22:06:26.010Z,91.49
2019-05-07T22:08:56.871Z,91.52
2019-05-07T22:11:27.863Z,91.69
2019-05-07T22:13:58.623Z,91.83
2019-05-07T22:16:29.348Z,92.08
2019-05-07T22:19:02.523Z,92.73
2019-05-07T22:21:34.237Z,93.50
2019-05-07T22:24:05.359Z,92.81
2019-05-07T22:26:36.213Z,92.28
2019-05-07T22:29:07.076Z,92.03
2019-05-07T22:31:56.789Z,92.37
2019-05-07T22:35:05.787Z,93.51
2019-05-07T22:37:36.696Z,94.34
2019-05-07T22:40:08.353Z,94.17
2019-05-07T22:42:39.186Z,93.64
2019-05-07T22:45:12.137Z,93.52
2019-05-07T22:47:43.173Z,93.31
2019-05-07T22:50:15.844Z,94.05
2019-05-07T22:52:46.743Z,94.48
2019-05-07T22:55:17.639Z,93.57
2019-05-07T22:57:56.317Z,93.06
2019-05-07T23:00:35.378Z,92.10
2019-05-07T23:03:06.293Z,91.86
2019-05-07T23:05:37.077Z,92.10
2019-05-07T23:08:07.872Z,92.55
2019-05-07T23:10:38.886Z,92.64
2019-05-07T23:13:09.633Z,92.35
2019-05-07T23:15:40.264Z,92.82
2019-05-07T23:18:13.044Z,92.17
2019-05-07T23:20:43.850Z,91.71
2019-05-07T23:23:14.463Z,91.92
2019-05-07T23:25:45.293Z,92.94
2019-05-07T23:28:16.139Z,93.05
2019-05-07T23:30:46.928Z,93.34
2019-05-07T23:33:17.950Z,93.96
2019-05-07T23:35:48.789Z,94.09
2019-05-07T23:38:19.608Z,94.38
2019-05-07T23:41:09.219Z,94.72
2019-05-07T23:43:42.355Z,95.11
2019-05-07T23:46:12.922Z,95.40
2019-05-07T23:48:43.761Z,95.69
2019-05-07T23:51:14.562Z,96.16
2019-05-07T23:53:45.363Z,96.82
2019-05-07T23:56:16.328Z,97.02
2019-05-07T23:58:47.058Z,96.98
